Auburn, Missouri
Current Conditions -  °F | °C
As of 8:54 AM on Thursday 30 Oct 2014 (Local Time) from KSET Reporting Station
Overcast Overcast  
Wind Chill: 39°   Ceiling: 9500
Heat Index: 43°   Visibility: 10mi
Dew Point: 41°   Wind: 6mph
Humidity: 93%   Direction: 100°E
Pressure: 30.14"   Gusts: NA
Location:  39.1646°N, 90.8436°W
Report Text: KSET 301354Z AUTO 10005KT 10SM BKN095 OVC110 06/05 A3014 RMK AO2 SLP206 T00610050
Loading
Personal Weather Stations






























Interactive Weather Map
Tropical Storm Tracking
New forecast layout! Learn more

10-Day Weather Forecast

Advertisements
Track Severe Weather on mobile